createdAt,value
2019-01-14T00:00:21.884Z,85
2019-01-14T00:01:23.944Z,85
2019-01-14T00:02:26.002Z,85
2019-01-14T00:03:28.078Z,85
2019-01-14T00:04:30.525Z,86
2019-01-14T00:05:32.579Z,86
2019-01-14T00:06:34.636Z,85
2019-01-14T00:07:36.682Z,85
2019-01-14T00:08:38.760Z,85
2019-01-14T00:09:40.795Z,86
2019-01-14T00:10:42.835Z,86
2019-01-14T00:11:44.873Z,85
2019-01-14T00:12:47.192Z,85
2019-01-14T00:13:49.233Z,85
2019-01-14T00:14:51.273Z,85
2019-01-14T00:15:53.601Z,86
2019-01-14T00:16:55.668Z,86
2019-01-14T00:17:57.753Z,86
2019-01-14T00:18:59.784Z,85
2019-01-14T00:20:02.231Z,86
2019-01-14T00:21:04.277Z,86
2019-01-14T00:22:06.326Z,86
2019-01-14T00:23:08.675Z,86
2019-01-14T00:24:10.709Z,85
2019-01-14T00:25:12.748Z,86
2019-01-14T00:26:15.082Z,86
2019-01-14T00:27:17.120Z,85
2019-01-14T00:28:19.154Z,86
2019-01-14T00:29:21.458Z,86
2019-01-14T00:30:23.505Z,86
2019-01-14T00:31:25.554Z,87
2019-01-14T00:32:27.600Z,87
2019-01-14T00:33:29.935Z,87
2019-01-14T00:34:31.971Z,87
2019-01-14T00:35:34.029Z,87
2019-01-14T00:36:36.122Z,86
2019-01-14T00:37:38.445Z,85
2019-01-14T00:38:40.512Z,85
2019-01-14T00:39:42.548Z,86
2019-01-14T00:40:44.566Z,86
2019-01-14T00:41:46.598Z,86
2019-01-14T00:42:48.941Z,86
2019-01-14T00:43:51.002Z,85
2019-01-14T00:44:53.036Z,85
2019-01-14T00:45:55.064Z,86
2019-01-14T00:46:57.101Z,85
2019-01-14T00:47:59.139Z,85
2019-01-14T00:49:01.183Z,84
2019-01-14T00:50:03.539Z,85
2019-01-14T00:51:05.591Z,85
2019-01-14T00:52:07.653Z,85
2019-01-14T00:53:09.703Z,85
2019-01-14T00:54:11.758Z,85
2019-01-14T00:55:13.818Z,85
2019-01-14T00:56:15.905Z,85
2019-01-14T00:57:17.935Z,85
2019-01-14T00:58:19.973Z,86
2019-01-14T00:59:22.070Z,86
2019-01-14T01:00:24.166Z,86
2019-01-14T01:01:26.208Z,86
2019-01-14T01:02:28.254Z,86
2019-01-14T01:03:30.294Z,85
2019-01-14T01:04:32.327Z,85
2019-01-14T01:05:34.374Z,86
2019-01-14T01:06:36.418Z,87
2019-01-14T01:07:38.482Z,86
2019-01-14T01:08:40.516Z,86
2019-01-14T01:09:42.543Z,86
2019-01-14T01:10:44.575Z,87
2019-01-14T01:11:46.611Z,86
2019-01-14T01:12:48.661Z,87
2019-01-14T01:13:50.689Z,86
2019-01-14T01:14:52.726Z,87
2019-01-14T01:15:55.149Z,87
2019-01-14T01:16:57.272Z,87
2019-01-14T01:17:59.294Z,87
2019-01-14T01:19:01.323Z,86
2019-01-14T01:20:03.643Z,87
2019-01-14T01:21:05.672Z,88
2019-01-14T01:22:07.722Z,88
2019-01-14T01:23:10.051Z,88
2019-01-14T01:24:12.092Z,89
2019-01-14T01:25:14.147Z,88
2019-01-14T01:26:16.190Z,88
2019-01-14T01:27:18.508Z,89
2019-01-14T01:28:20.562Z,88
2019-01-14T01:29:22.594Z,88
2019-01-14T01:30:24.642Z,87
2019-01-14T01:31:26.680Z,88
2019-01-14T01:32:28.717Z,88
2019-01-14T01:33:30.750Z,88
2019-01-14T01:34:32.794Z,89
2019-01-14T01:35:34.839Z,88
2019-01-14T01:36:36.865Z,87
2019-01-14T01:37:38.893Z,88
2019-01-14T01:38:40.947Z,88
2019-01-14T01:39:43.018Z,88
2019-01-14T01:40:45.624Z,88
2019-01-14T01:41:47.653Z,88
2019-01-14T01:42:49.695Z,88
2019-01-14T01:43:51.715Z,88
2019-01-14T01:44:53.747Z,87
2019-01-14T01:45:55.786Z,88
2019-01-14T01:46:57.826Z,87
2019-01-14T01:47:59.870Z,88
2019-01-14T01:49:01.911Z,88
2019-01-14T01:50:03.971Z,87
2019-01-14T01:51:06.411Z,86
2019-01-14T01:52:08.453Z,86
2019-01-14T01:53:10.479Z,86
2019-01-14T01:54:12.521Z,86
2019-01-14T01:55:14.552Z,86
2019-01-14T01:56:16.597Z,86
2019-01-14T01:57:18.618Z,86
2019-01-14T01:58:20.719Z,85
2019-01-14T01:59:22.756Z,85
2019-01-14T02:00:24.800Z,85
2019-01-14T02:01:26.837Z,85
2019-01-14T02:02:28.876Z,84
2019-01-14T02:03:30.922Z,83
2019-01-14T02:04:32.967Z,84
2019-01-14T02:05:35.007Z,82
2019-01-14T02:06:40.244Z,81
2019-01-14T02:07:42.296Z,81
2019-01-14T02:08:44.623Z,80
2019-01-14T02:09:46.649Z,80
2019-01-14T02:10:49.078Z,80
2019-01-14T02:11:51.122Z,79
2019-01-14T02:12:53.175Z,78
2019-01-14T02:13:55.216Z,78
2019-01-14T02:14:57.264Z,79
2019-01-14T02:15:59.296Z,78
2019-01-14T02:17:01.336Z,78
2019-01-14T02:18:03.661Z,78
2019-01-14T02:19:06.111Z,78
2019-01-14T02:20:08.138Z,78
2019-01-14T02:21:10.168Z,77
2019-01-14T02:22:12.201Z,76
2019-01-14T02:23:14.261Z,77
2019-01-14T02:24:16.306Z,77
2019-01-14T02:25:18.338Z,76
2019-01-14T02:26:21.075Z,75
2019-01-14T02:27:23.112Z,76
2019-01-14T02:28:25.149Z,76
2019-01-14T02:29:27.182Z,75
2019-01-14T02:30:29.501Z,75
2019-01-14T02:31:31.831Z,74
2019-01-14T02:32:34.240Z,74
2019-01-14T02:33:36.661Z,74
2019-01-14T02:34:39.095Z,74
2019-01-14T02:35:41.431Z,74
2019-01-14T02:36:49.853Z,74
2019-01-14T02:37:51.875Z,74
2019-01-14T02:38:53.920Z,73
2019-01-14T02:39:56.245Z,72
2019-01-14T02:40:58.278Z,72
2019-01-14T02:42:00.322Z,72
2019-01-14T02:43:02.357Z,73
2019-01-14T02:44:04.429Z,71
2019-01-14T02:45:06.479Z,72
2019-01-14T02:46:08.827Z,70
2019-01-14T02:47:11.149Z,71
2019-01-14T02:48:13.188Z,71
2019-01-14T02:49:15.226Z,69
2019-01-14T02:50:17.549Z,70
2019-01-14T02:51:19.608Z,69
2019-01-14T02:52:21.682Z,69
2019-01-14T02:53:23.725Z,69
2019-01-14T02:54:26.244Z,69
2019-01-14T02:55:28.573Z,69
2019-01-14T02:56:30.624Z,70
2019-01-14T02:57:32.653Z,70
2019-01-14T02:58:34.690Z,69
2019-01-14T02:59:36.747Z,70
2019-01-14T03:00:38.787Z,70
2019-01-14T03:01:41.208Z,70
2019-01-14T03:02:43.229Z,70
2019-01-14T03:03:45.573Z,70
2019-01-14T03:04:47.607Z,70
2019-01-14T03:05:49.634Z,70
2019-01-14T03:06:59.084Z,71
2019-01-14T03:08:01.119Z,71
2019-01-14T03:09:03.175Z,71
2019-01-14T03:10:05.238Z,72
2019-01-14T03:11:07.286Z,72
2019-01-14T03:12:09.321Z,71
2019-01-14T03:13:11.364Z,72
2019-01-14T03:14:13.703Z,72
2019-01-14T03:15:16.037Z,72
2019-01-14T03:16:18.099Z,72
2019-01-14T03:17:20.423Z,72
2019-01-14T03:18:22.863Z,73
2019-01-14T03:19:24.938Z,74
2019-01-14T03:20:26.986Z,74
2019-01-14T03:21:29.686Z,74
2019-01-14T03:22:31.730Z,74
2019-01-14T03:23:33.777Z,73
2019-01-14T03:24:35.826Z,74
2019-01-14T03:25:37.847Z,74
2019-01-14T03:26:39.896Z,75
2019-01-14T03:27:41.960Z,75
2019-01-14T03:28:44.304Z,75
2019-01-14T03:29:46.357Z,75
2019-01-14T03:30:49.106Z,75
2019-01-14T03:31:51.425Z,75
2019-01-14T03:32:54.049Z,75
2019-01-14T03:33:56.397Z,75
2019-01-14T03:34:58.728Z,75
2019-01-14T03:36:01.058Z,75
2019-01-14T03:37:06.581Z,76
2019-01-14T03:38:08.637Z,75
2019-01-14T03:39:10.689Z,74
2019-01-14T03:40:12.722Z,74
2019-01-14T03:41:14.761Z,75
2019-01-14T03:42:17.237Z,74
2019-01-14T03:43:19.284Z,74
2019-01-14T03:44:21.338Z,74
2019-01-14T03:45:23.400Z,74
2019-01-14T03:46:25.429Z,73
2019-01-14T03:47:27.771Z,73
2019-01-14T03:48:29.811Z,72
2019-01-14T03:49:31.842Z,70
2019-01-14T03:50:33.866Z,70
2019-01-14T03:51:35.889Z,71
2019-01-14T03:52:37.945Z,71
2019-01-14T03:53:39.988Z,70
2019-01-14T03:54:42.024Z,70
2019-01-14T03:55:44.346Z,71
2019-01-14T03:56:46.681Z,70
2019-01-14T03:57:48.718Z,69
2019-01-14T03:58:50.752Z,69
2019-01-14T03:59:52.792Z,69
2019-01-14T04:00:54.820Z,68
2019-01-14T04:01:57.138Z,68
2019-01-14T04:02:59.191Z,70
2019-01-14T04:04:01.502Z,69
2019-01-14T04:05:03.860Z,69
2019-01-14T04:06:05.911Z,70
2019-01-14T04:07:14.711Z,70
2019-01-14T04:08:16.771Z,71
2019-01-14T04:09:19.074Z,71
2019-01-14T04:10:21.114Z,70
2019-01-14T04:11:23.446Z,71
2019-01-14T04:12:25.855Z,72
2019-01-14T04:13:27.895Z,72
2019-01-14T04:14:30.029Z,75
2019-01-14T04:15:32.454Z,75
2019-01-14T04:16:34.510Z,75
2019-01-14T04:17:36.933Z,75
2019-01-14T04:18:39.013Z,76
2019-01-14T04:19:41.058Z,76
2019-01-14T04:20:43.105Z,76
2019-01-14T04:21:45.444Z,76
2019-01-14T04:22:47.896Z,77
2019-01-14T04:23:50.347Z,78
2019-01-14T04:24:52.405Z,78
2019-01-14T04:25:54.736Z,78
2019-01-14T04:26:56.762Z,79
2019-01-14T04:27:58.832Z,79
2019-01-14T04:29:01.148Z,80
2019-01-14T04:30:03.627Z,80
2019-01-14T04:31:06.056Z,79
2019-01-14T04:32:08.095Z,80
2019-01-14T04:33:10.159Z,79
2019-01-14T04:34:12.196Z,80
2019-01-14T04:35:14.537Z,80
2019-01-14T04:36:16.865Z,79
2019-01-14T04:37:22.562Z,79
2019-01-14T04:38:24.875Z,79
2019-01-14T04:39:27.198Z,78
2019-01-14T04:40:29.259Z,78
2019-01-14T04:41:31.863Z,78
2019-01-14T04:42:33.904Z,79
2019-01-14T04:43:35.943Z,78
2019-01-14T04:44:38.372Z,77
2019-01-14T04:45:40.403Z,76
2019-01-14T04:46:42.714Z,77
2019-01-14T04:47:44.830Z,75
2019-01-14T04:48:46.901Z,75
2019-01-14T04:49:48.958Z,75
2019-01-14T04:50:50.986Z,76
2019-01-14T04:51:53.336Z,75
2019-01-14T04:52:55.371Z,74
2019-01-14T04:53:57.678Z,75
2019-01-14T04:54:59.743Z,74
2019-01-14T04:56:01.919Z,75
2019-01-14T04:57:03.962Z,74
2019-01-14T04:58:06.030Z,74
2019-01-14T04:59:08.130Z,74
2019-01-14T05:00:10.176Z,73
2019-01-14T05:01:12.212Z,73
2019-01-14T05:02:14.260Z,73
2019-01-14T05:03:16.604Z,74
2019-01-14T05:04:18.655Z,74
2019-01-14T05:05:20.732Z,73
2019-01-14T05:06:23.055Z,72
2019-01-14T05:07:30.895Z,72
2019-01-14T05:08:32.937Z,73
2019-01-14T05:09:35.384Z,72
2019-01-14T05:10:37.412Z,73
2019-01-14T05:11:39.441Z,73
2019-01-14T05:12:41.485Z,72
2019-01-14T05:13:43.798Z,73
2019-01-14T05:14:45.837Z,72
2019-01-14T05:15:47.870Z,72
2019-01-14T05:16:50.281Z,72
2019-01-14T05:17:52.308Z,72
2019-01-14T05:18:54.337Z,73
2019-01-14T05:19:56.386Z,73
2019-01-14T05:20:58.503Z,73
2019-01-14T05:22:00.923Z,73
2019-01-14T05:23:03.626Z,74
2019-01-14T05:24:05.685Z,73
2019-01-14T05:25:07.719Z,73
2019-01-14T05:26:09.756Z,74
2019-01-14T05:27:12.083Z,74
2019-01-14T05:28:14.491Z,74
2019-01-14T05:29:16.524Z,74
2019-01-14T05:30:18.555Z,73
2019-01-14T05:31:20.905Z,73
2019-01-14T05:32:23.231Z,73
2019-01-14T05:33:25.544Z,74
2019-01-14T05:34:27.592Z,73
2019-01-14T05:35:29.923Z,73
2019-01-14T05:36:31.954Z,72
2019-01-14T05:37:39.148Z,73
2019-01-14T05:38:41.194Z,72
2019-01-14T05:39:43.232Z,72
2019-01-14T05:40:45.303Z,72
2019-01-14T05:41:47.343Z,72
2019-01-14T05:42:49.375Z,72
2019-01-14T05:43:51.692Z,72
2019-01-14T05:44:54.066Z,73
2019-01-14T05:45:56.680Z,74
2019-01-14T05:46:58.713Z,74
2019-01-14T05:48:01.141Z,74
2019-01-14T05:49:03.749Z,74
2019-01-14T05:50:05.792Z,75
2019-01-14T05:51:07.835Z,76
2019-01-14T05:52:09.879Z,76
2019-01-14T05:53:11.901Z,76
2019-01-14T05:54:13.948Z,76
2019-01-14T05:55:15.983Z,76
2019-01-14T05:56:18.029Z,76
2019-01-14T05:57:20.138Z,76
2019-01-14T05:58:22.170Z,76
2019-01-14T05:59:24.211Z,77
2019-01-14T06:00:26.272Z,78
2019-01-14T06:01:28.605Z,76
2019-01-14T06:02:31.060Z,76
2019-01-14T06:03:33.116Z,76
2019-01-14T06:04:35.814Z,76
2019-01-14T06:05:38.289Z,76
2019-01-14T06:06:40.317Z,77
2019-01-14T06:07:46.159Z,77
2019-01-14T06:08:48.194Z,77
2019-01-14T06:09:50.239Z,77
2019-01-14T06:10:52.286Z,77
2019-01-14T06:11:54.331Z,77
2019-01-14T06:12:57.058Z,77
2019-01-14T06:13:59.370Z,77
2019-01-14T06:15:01.714Z,77
2019-01-14T06:16:03.765Z,77
2019-01-14T06:17:05.834Z,77
2019-01-14T06:18:07.878Z,77
2019-01-14T06:19:09.920Z,77
2019-01-14T06:20:12.258Z,77
2019-01-14T06:21:14.314Z,77
2019-01-14T06:22:16.349Z,78
2019-01-14T06:23:18.382Z,77
2019-01-14T06:24:20.407Z,77
2019-01-14T06:25:22.446Z,77
2019-01-14T06:26:25.166Z,77
2019-01-14T06:27:27.205Z,77
2019-01-14T06:28:29.291Z,77
2019-01-14T06:29:31.316Z,77
2019-01-14T06:30:33.361Z,77
2019-01-14T06:31:35.409Z,77
2019-01-14T06:32:37.446Z,78
2019-01-14T06:33:39.871Z,77
2019-01-14T06:34:41.927Z,77
2019-01-14T06:35:44.537Z,77
2019-01-14T06:36:46.969Z,76
2019-01-14T06:37:53.446Z,76
2019-01-14T06:38:55.486Z,76
2019-01-14T06:39:57.528Z,76
2019-01-14T06:40:59.555Z,75
2019-01-14T06:42:01.885Z,75
2019-01-14T06:43:03.930Z,76
2019-01-14T06:44:05.970Z,75
2019-01-14T06:45:08.004Z,74
2019-01-14T06:46:10.033Z,75
2019-01-14T06:47:12.084Z,74
2019-01-14T06:48:14.118Z,74
2019-01-14T06:49:16.180Z,73
2019-01-14T06:50:18.510Z,73
2019-01-14T06:51:20.866Z,73
2019-01-14T06:52:23.190Z,73
2019-01-14T06:53:25.236Z,72
2019-01-14T06:54:27.264Z,71
2019-01-14T06:55:29.615Z,71
2019-01-14T06:56:31.940Z,70
2019-01-14T06:57:33.978Z,70
2019-01-14T06:58:36.006Z,70
2019-01-14T06:59:38.056Z,70
2019-01-14T07:00:40.736Z,70
2019-01-14T07:01:43.057Z,70
2019-01-14T07:02:45.095Z,70
2019-01-14T07:03:47.146Z,70
2019-01-14T07:04:49.174Z,71
2019-01-14T07:05:51.220Z,71
2019-01-14T07:06:53.243Z,70
2019-01-14T07:08:00.745Z,71
2019-01-14T07:09:03.433Z,70
2019-01-14T07:10:05.490Z,70
2019-01-14T07:11:07.524Z,71
2019-01-14T07:12:09.861Z,71
2019-01-14T07:13:11.897Z,72
2019-01-14T07:14:13.929Z,71
2019-01-14T07:15:16.248Z,71
2019-01-14T07:16:18.555Z,71
2019-01-14T07:17:20.588Z,69
2019-01-14T07:18:22.644Z,69
2019-01-14T07:19:24.702Z,69
2019-01-14T07:20:26.757Z,69
2019-01-14T07:21:29.091Z,70
2019-01-14T07:22:31.118Z,69
2019-01-14T07:23:33.145Z,68
2019-01-14T07:24:35.238Z,68
2019-01-14T07:25:37.272Z,67
2019-01-14T07:26:39.312Z,65
2019-01-14T07:27:41.342Z,65
2019-01-14T07:28:43.382Z,64
2019-01-14T07:29:45.426Z,64
2019-01-14T07:30:47.459Z,65
2019-01-14T07:31:49.489Z,65
2019-01-14T07:32:51.793Z,66
2019-01-14T07:33:53.841Z,65
2019-01-14T07:34:55.906Z,64
2019-01-14T07:35:57.956Z,64
2019-01-14T07:37:00.274Z,65
2019-01-14T07:38:07.913Z,65
2019-01-14T07:39:10.627Z,65
2019-01-14T07:40:12.675Z,65
2019-01-14T07:41:14.988Z,65
2019-01-14T07:42:17.019Z,65
2019-01-14T07:43:19.061Z,66
2019-01-14T07:44:21.114Z,65
2019-01-14T07:45:23.456Z,65
2019-01-14T07:46:25.575Z,65
2019-01-14T07:47:27.619Z,66
2019-01-14T07:48:29.929Z,66
2019-01-14T07:49:31.957Z,66
2019-01-14T07:50:33.992Z,66
2019-01-14T07:51:36.325Z,67
2019-01-14T07:52:38.363Z,66
2019-01-14T07:53:40.403Z,66
2019-01-14T07:54:42.723Z,68
2019-01-14T07:55:44.748Z,67
2019-01-14T07:56:46.771Z,67
2019-01-14T07:57:48.816Z,67
2019-01-14T07:58:50.849Z,68
2019-01-14T07:59:52.880Z,69
2019-01-14T08:00:55.296Z,70
2019-01-14T08:01:58.003Z,69
2019-01-14T08:03:00.041Z,70
2019-01-14T08:04:02.082Z,70
2019-01-14T08:05:04.409Z,70
2019-01-14T08:06:06.453Z,71
2019-01-14T08:07:08.487Z,71
2019-01-14T08:08:15.085Z,72
2019-01-14T08:09:17.399Z,73
2019-01-14T08:10:19.456Z,72
2019-01-14T08:11:21.503Z,72
2019-01-14T08:12:23.533Z,72
2019-01-14T08:13:25.576Z,73
2019-01-14T08:14:27.604Z,73
2019-01-14T08:15:30.303Z,74
2019-01-14T08:16:32.355Z,74
2019-01-14T08:17:34.396Z,74
2019-01-14T08:18:36.425Z,75
2019-01-14T08:19:38.445Z,75
2019-01-14T08:20:40.490Z,75
2019-01-14T08:21:42.523Z,75
2019-01-14T08:22:44.858Z,75
2019-01-14T08:23:46.919Z,75
2019-01-14T08:24:48.956Z,75
2019-01-14T08:25:50.990Z,75
2019-01-14T08:26:53.037Z,75
2019-01-14T08:27:55.156Z,76
2019-01-14T08:28:57.515Z,75
2019-01-14T08:29:59.781Z,75
2019-01-14T08:31:01.976Z,76
2019-01-14T08:32:04.861Z,76
2019-01-14T08:33:07.217Z,75
2019-01-14T08:34:09.254Z,75
2019-01-14T08:35:11.298Z,75
2019-01-14T08:36:13.333Z,74
2019-01-14T08:37:15.364Z,74
2019-01-14T08:38:22.470Z,74
2019-01-14T08:39:24.499Z,74
2019-01-14T08:40:26.542Z,74
2019-01-14T08:41:28.578Z,74
2019-01-14T08:42:30.606Z,74
2019-01-14T08:43:32.632Z,74
2019-01-14T08:44:34.667Z,74
2019-01-14T08:45:36.709Z,74
2019-01-14T08:46:38.758Z,73
2019-01-14T08:47:40.813Z,73
2019-01-14T08:48:49.669Z,73
2019-01-14T08:49:51.694Z,74
2019-01-14T08:50:54.099Z,73
2019-01-14T08:51:56.136Z,73
2019-01-14T08:52:58.458Z,72
2019-01-14T08:54:00.503Z,72
2019-01-14T08:55:02.556Z,72
2019-01-14T08:56:04.596Z,72
2019-01-14T08:57:06.645Z,73
2019-01-14T08:58:09.758Z,73
2019-01-14T08:59:11.792Z,71
2019-01-14T09:00:14.122Z,71
2019-01-14T09:01:16.448Z,72
2019-01-14T09:02:18.470Z,72
2019-01-14T09:03:20.510Z,71
2019-01-14T09:04:32.741Z,72
2019-01-14T09:05:34.806Z,71
2019-01-14T09:06:36.840Z,71
2019-01-14T09:07:38.882Z,71
2019-01-14T09:08:40.919Z,71
2019-01-14T09:09:42.961Z,70
2019-01-14T09:10:44.987Z,70
2019-01-14T09:11:47.014Z,70
2019-01-14T09:12:49.057Z,70
2019-01-14T09:13:51.087Z,70
2019-01-14T09:14:53.137Z,70
2019-01-14T09:15:55.178Z,70
2019-01-14T09:16:57.227Z,70
2019-01-14T09:18:04.061Z,69
2019-01-14T09:19:06.113Z,70
2019-01-14T09:20:08.143Z,70
2019-01-14T09:21:10.451Z,70
2019-01-14T09:22:12.857Z,70
2019-01-14T09:23:14.890Z,70
2019-01-14T09:24:16.931Z,70
2019-01-14T09:25:18.981Z,68
2019-01-14T09:26:21.038Z,69
2019-01-14T09:27:23.090Z,68
2019-01-14T09:28:25.504Z,69
2019-01-14T09:29:27.560Z,69
2019-01-14T09:30:29.620Z,69
2019-01-14T09:31:31.680Z,70
2019-01-14T09:32:33.718Z,69
2019-01-14T09:33:36.144Z,68
2019-01-14T09:34:38.186Z,68
2019-01-14T09:35:40.226Z,68
2019-01-14T09:36:42.274Z,68
2019-01-14T09:37:44.307Z,68
2019-01-14T09:38:46.342Z,67
2019-01-14T09:39:48.395Z,68
2019-01-14T09:40:50.784Z,67
2019-01-14T09:41:52.822Z,67
2019-01-14T09:42:54.855Z,67
2019-01-14T09:43:56.921Z,67
2019-01-14T09:44:59.267Z,68
2019-01-14T09:46:01.308Z,68
2019-01-14T09:47:03.343Z,67
2019-01-14T09:48:05.381Z,67
2019-01-14T09:49:07.414Z,68
2019-01-14T09:50:09.460Z,67
2019-01-14T09:51:12.194Z,67
2019-01-14T09:52:14.232Z,69
2019-01-14T09:53:16.570Z,69
2019-01-14T09:54:19.180Z,67
2019-01-14T09:55:21.241Z,69
2019-01-14T09:56:23.324Z,68
2019-01-14T09:57:25.364Z,67
2019-01-14T09:58:27.405Z,67
2019-01-14T09:59:29.493Z,67
2019-01-14T10:00:31.530Z,67
2019-01-14T10:01:33.575Z,67
2019-01-14T10:02:35.746Z,68
2019-01-14T10:03:37.794Z,68
2019-01-14T10:04:39.854Z,67
2019-01-14T10:05:41.937Z,66
2019-01-14T10:06:43.972Z,67
2019-01-14T10:07:46.418Z,66
2019-01-14T10:08:48.462Z,67
2019-01-14T10:09:50.515Z,67
2019-01-14T10:10:52.557Z,66
2019-01-14T10:11:54.600Z,67
2019-01-14T10:12:56.641Z,66
2019-01-14T10:13:58.699Z,66
2019-01-14T10:15:01.019Z,68
2019-01-14T10:16:03.058Z,67
2019-01-14T10:17:05.112Z,69
2019-01-14T10:18:07.141Z,68
2019-01-14T10:19:09.199Z,67
2019-01-14T10:20:11.542Z,67
2019-01-14T10:21:13.638Z,68
2019-01-14T10:22:15.672Z,68
2019-01-14T10:23:17.714Z,67
2019-01-14T10:24:19.758Z,66
2019-01-14T10:25:21.804Z,66
2019-01-14T10:26:24.143Z,66
2019-01-14T10:27:26.190Z,67
2019-01-14T10:28:28.539Z,67
2019-01-14T10:29:30.591Z,69
2019-01-14T10:30:32.907Z,68
2019-01-14T10:31:34.958Z,68
2019-01-14T10:32:37.015Z,68
2019-01-14T10:33:39.071Z,69
2019-01-14T10:34:41.123Z,69
2019-01-14T10:35:43.158Z,70
2019-01-14T10:36:45.212Z,69
2019-01-14T10:37:47.627Z,70
2019-01-14T10:38:51.410Z,69
2019-01-14T10:39:53.457Z,70
2019-01-14T10:40:55.500Z,69
2019-01-14T10:41:57.570Z,70
2019-01-14T10:42:59.634Z,72
2019-01-14T10:44:01.777Z,71
2019-01-14T10:45:03.857Z,70
2019-01-14T10:46:05.900Z,71
2019-01-14T10:47:08.225Z,70
2019-01-14T10:48:10.287Z,70
2019-01-14T10:49:12.599Z,71
2019-01-14T10:50:14.654Z,70
2019-01-14T10:51:16.694Z,70
2019-01-14T10:52:18.788Z,70
2019-01-14T10:53:20.848Z,70
2019-01-14T10:54:22.882Z,71
2019-01-14T10:55:24.918Z,70
2019-01-14T10:56:27.348Z,71
2019-01-14T10:57:29.467Z,70
2019-01-14T10:58:31.511Z,69
2019-01-14T10:59:33.855Z,69
2019-01-14T11:00:35.910Z,71
2019-01-14T11:01:37.966Z,71
2019-01-14T11:02:40.026Z,70
2019-01-14T11:03:42.076Z,69
2019-01-14T11:04:44.132Z,70
2019-01-14T11:05:46.177Z,69
2019-01-14T11:06:48.247Z,69
2019-01-14T11:07:50.276Z,68
2019-01-14T11:09:06.838Z,69
2019-01-14T11:10:08.907Z,69
2019-01-14T11:11:11.037Z,69
2019-01-14T11:12:13.070Z,69
2019-01-14T11:13:15.119Z,69
2019-01-14T11:14:17.452Z,69
2019-01-14T11:15:21.482Z,70
2019-01-14T11:16:24.833Z,70
2019-01-14T11:17:28.752Z,69
2019-01-14T11:18:33.776Z,70
2019-01-14T11:19:36.219Z,70
2019-01-14T11:20:38.763Z,70
2019-01-14T11:21:48.819Z,70
2019-01-14T11:22:51.464Z,70
2019-01-14T11:23:54.042Z,70
2019-01-14T11:24:56.078Z,70
2019-01-14T11:25:58.124Z,70
2019-01-14T11:27:00.539Z,70
2019-01-14T11:28:02.919Z,70
2019-01-14T11:29:04.964Z,70
2019-01-14T11:30:07.082Z,70
2019-01-14T11:31:09.115Z,71
2019-01-14T11:32:11.165Z,70
2019-01-14T11:33:13.536Z,70
2019-01-14T11:34:15.681Z,70
2019-01-14T11:35:18.396Z,70
2019-01-14T11:36:20.428Z,69
2019-01-14T11:37:22.474Z,70
2019-01-14T11:38:24.784Z,69
2019-01-14T11:39:26.832Z,70
2019-01-14T11:40:28.887Z,70
2019-01-14T11:41:30.936Z,70
2019-01-14T11:42:33.251Z,70
2019-01-14T11:43:35.351Z,70
2019-01-14T11:44:37.672Z,69
2019-01-14T11:45:39.706Z,70
2019-01-14T11:46:41.744Z,68
2019-01-14T11:47:43.785Z,67
2019-01-14T11:48:46.092Z,66
2019-01-14T11:49:48.123Z,65
2019-01-14T11:50:50.186Z,65
2019-01-14T11:51:52.252Z,65
2019-01-14T11:52:54.272Z,65
2019-01-14T11:53:56.310Z,63
2019-01-14T11:54:58.355Z,62
2019-01-14T11:56:00.693Z,62
2019-01-14T11:57:02.752Z,62
2019-01-14T11:58:04.794Z,62
2019-01-14T11:59:06.824Z,61
2019-01-14T12:00:08.868Z,61
2019-01-14T12:01:10.907Z,60
2019-01-14T12:02:12.944Z,60
2019-01-14T12:03:14.986Z,59
2019-01-14T12:04:17.032Z,59
2019-01-14T12:05:19.638Z,59
2019-01-14T12:06:21.689Z,60
2019-01-14T12:07:23.729Z,60
2019-01-14T12:08:26.132Z,61
2019-01-14T12:09:28.167Z,61
2019-01-14T12:10:30.194Z,60
2019-01-14T12:11:32.207Z,61
2019-01-14T12:12:34.547Z,62
2019-01-14T12:13:36.581Z,61
2019-01-14T12:14:38.628Z,60
2019-01-14T12:15:40.668Z,60
2019-01-14T12:16:42.728Z,59
2019-01-14T12:17:44.764Z,60
2019-01-14T12:18:46.797Z,60
2019-01-14T12:19:48.836Z,61
2019-01-14T12:20:50.878Z,59
2019-01-14T12:21:52.972Z,58
2019-01-14T12:22:55.298Z,57
2019-01-14T12:23:57.322Z,56
2019-01-14T12:24:59.364Z,56
2019-01-14T12:26:01.455Z,56
2019-01-14T12:27:03.894Z,56
2019-01-14T12:28:05.955Z,56
2019-01-14T12:29:07.997Z,56
2019-01-14T12:30:10.039Z,58
2019-01-14T12:31:12.107Z,58
2019-01-14T12:32:14.417Z,57
2019-01-14T12:33:16.844Z,58
2019-01-14T12:34:18.884Z,57
2019-01-14T12:35:20.937Z,59
2019-01-14T12:36:22.975Z,58
2019-01-14T12:37:24.996Z,57
2019-01-14T12:38:27.043Z,57
2019-01-14T12:39:29.360Z,57
2019-01-14T12:40:31.686Z,57
2019-01-14T12:41:34.102Z,57
2019-01-14T12:42:36.145Z,57
2019-01-14T12:43:38.466Z,57
2019-01-14T12:44:40.528Z,57
2019-01-14T12:45:42.574Z,58
2019-01-14T12:46:44.919Z,57
2019-01-14T12:47:46.968Z,57
2019-01-14T12:48:49.019Z,56
2019-01-14T12:49:51.081Z,56
2019-01-14T12:50:53.524Z,57
2019-01-14T12:51:55.584Z,57
2019-01-14T12:52:57.634Z,57
2019-01-14T12:53:59.670Z,56
2019-01-14T12:55:01.725Z,56
2019-01-14T12:56:03.791Z,56
2019-01-14T12:57:05.834Z,58
2019-01-14T12:58:07.927Z,57
2019-01-14T12:59:09.978Z,57
2019-01-14T13:00:12.134Z,57
2019-01-14T13:01:14.189Z,57
2019-01-14T13:02:16.244Z,58
2019-01-14T13:03:18.279Z,57
2019-01-14T13:04:20.326Z,58
2019-01-14T13:05:22.637Z,58
2019-01-14T13:06:24.688Z,57
2019-01-14T13:07:26.725Z,57
2019-01-14T13:08:28.783Z,57
2019-01-14T13:09:30.838Z,58
2019-01-14T13:10:32.890Z,57
2019-01-14T13:11:34.940Z,58
2019-01-14T13:12:37.047Z,57
2019-01-14T13:13:39.097Z,57
2019-01-14T13:14:41.137Z,58
2019-01-14T13:15:43.199Z,59
2019-01-14T13:16:45.243Z,58
2019-01-14T13:17:47.310Z,58
2019-01-14T13:18:49.357Z,57
2019-01-14T13:19:51.389Z,57
2019-01-14T13:20:53.408Z,57
2019-01-14T13:21:55.446Z,57
2019-01-14T13:22:57.492Z,58
2019-01-14T13:23:59.528Z,57
2019-01-14T13:25:46.407Z,57
2019-01-14T13:26:48.446Z,56
2019-01-14T13:27:50.496Z,56
2019-01-14T13:28:52.551Z,56
2019-01-14T13:29:54.584Z,56
2019-01-14T13:30:56.626Z,56
2019-01-14T13:31:58.659Z,56
2019-01-14T13:33:00.713Z,56
2019-01-14T13:34:02.780Z,55
2019-01-14T13:35:04.819Z,56
2019-01-14T13:36:06.843Z,56
2019-01-14T13:37:09.187Z,57
2019-01-14T13:38:11.230Z,57
2019-01-14T13:39:13.272Z,55
2019-01-14T13:40:15.310Z,57
2019-01-14T13:41:17.634Z,57
2019-01-14T13:42:19.674Z,57
2019-01-14T13:43:21.723Z,57
2019-01-14T13:44:24.171Z,57
2019-01-14T13:45:26.326Z,57
2019-01-14T13:46:28.376Z,56
2019-01-14T13:47:30.435Z,57
2019-01-14T13:48:32.468Z,57
2019-01-14T13:49:34.792Z,57
2019-01-14T13:50:36.876Z,58
2019-01-14T13:51:38.917Z,58
2019-01-14T13:52:40.953Z,58
2019-01-14T13:53:42.994Z,58
2019-01-14T13:54:45.040Z,57
2019-01-14T13:55:47.064Z,57
2019-01-14T13:56:49.098Z,58
2019-01-14T13:57:53.113Z,58
2019-01-14T13:58:55.149Z,58
2019-01-14T13:59:57.493Z,58
2019-01-14T14:00:59.524Z,58
2019-01-14T14:02:01.581Z,58
2019-01-14T14:03:04.403Z,58
2019-01-14T14:04:06.448Z,59
2019-01-14T14:05:08.757Z,60
2019-01-14T14:06:10.806Z,60
2019-01-14T14:07:12.838Z,59
2019-01-14T14:08:15.354Z,59
2019-01-14T14:09:17.397Z,59
2019-01-14T14:10:19.451Z,58
2019-01-14T14:11:21.775Z,59
2019-01-14T14:12:24.094Z,60
2019-01-14T14:13:26.148Z,59
2019-01-14T14:14:28.198Z,58
2019-01-14T14:15:30.304Z,58
2019-01-14T14:16:32.350Z,59
2019-01-14T14:17:34.410Z,59
2019-01-14T14:18:36.455Z,59
2019-01-14T14:19:38.560Z,59
2019-01-14T14:20:40.675Z,59
2019-01-14T14:21:42.713Z,58
2019-01-14T14:22:44.733Z,59
2019-01-14T14:23:46.793Z,59
2019-01-14T14:24:49.218Z,59
2019-01-14T14:25:51.332Z,59
2019-01-14T14:26:53.372Z,58
2019-01-14T14:27:55.830Z,57
2019-01-14T14:28:57.875Z,58
2019-01-14T14:30:00.259Z,57
2019-01-14T14:31:02.701Z,58
2019-01-14T14:32:04.844Z,58
2019-01-14T14:33:06.935Z,59
2019-01-14T14:34:08.982Z,59
2019-01-14T14:35:11.034Z,59
2019-01-14T14:36:13.116Z,60
2019-01-14T14:37:15.162Z,60
2019-01-14T14:38:17.274Z,61
2019-01-14T14:39:19.544Z,62
2019-01-14T14:40:21.599Z,63
2019-01-14T14:41:23.939Z,63
2019-01-14T14:42:25.986Z,63
2019-01-14T14:43:28.042Z,64
2019-01-14T14:44:30.128Z,63
2019-01-14T14:45:32.167Z,63
2019-01-14T14:46:34.220Z,62
2019-01-14T14:47:36.295Z,63
2019-01-14T14:48:38.421Z,63